sensor_id;sensor_type;location;lat;lon;timestamp;pressure;altitude;pressure_sealevel;temperature;humidity
55010;BME280;40903;51.638;7.528;2023-07-20T00:02:02;100771.94;;;17.11;100.00
55010;BME280;40903;51.638;7.528;2023-07-20T00:04:28;100760.59;;;17.13;100.00
55010;BME280;40903;51.638;7.528;2023-07-20T00:06:54;100763.00;;;17.14;100.00
55010;BME280;40903;51.638;7.528;2023-07-20T00:09:22;100761.38;;;17.13;100.00
55010;BME280;40903;51.638;7.528;2023-07-20T00:11:53;100765.44;;;17.16;100.00
55010;BME280;40903;51.638;7.528;2023-07-20T00:14:19;100761.84;;;17.15;100.00
55010;BME280;40903;51.638;7.528;2023-07-20T00:16:49;100760.72;;;17.16;100.00
55010;BME280;40903;51.638;7.528;2023-07-20T00:19:20;100765.44;;;17.16;100.00
55010;BME280;40903;51.638;7.528;2023-07-20T00:21:46;100764.63;;;17.15;100.00
55010;BME280;40903;51.638;7.528;2023-07-20T00:24:11;100764.63;;;17.15;100.00
55010;BME280;40903;51.638;7.528;2023-07-20T00:26:37;100763.00;;;17.14;100.00
55010;BME280;40903;51.638;7.528;2023-07-20T00:29:02;100765.75;;;17.14;100.00
55010;BME280;40903;51.638;7.528;2023-07-20T00:31:28;100767.03;;;17.17;100.00
55010;BME280;40903;51.638;7.528;2023-07-20T00:33:54;100767.84;;;17.17;100.00
55010;BME280;40903;51.638;7.528;2023-07-20T00:36:19;100754.06;;;17.17;100.00
55010;BME280;40903;51.638;7.528;2023-07-20T00:38:45;100756.34;;;17.15;100.00
55010;BME280;40903;51.638;7.528;2023-07-20T00:41:10;100756.34;;;17.15;100.00
55010;BME280;40903;51.638;7.528;2023-07-20T00:43:36;100749.69;;;17.16;100.00
55010;BME280;40903;51.638;7.528;2023-07-20T00:46:01;100748.53;;;17.17;100.00
55010;BME280;40903;51.638;7.528;2023-07-20T00:48:29;100750.66;;;17.20;100.00
55010;BME280;40903;51.638;7.528;2023-07-20T00:50:55;100758.94;;;17.20;100.00
55010;BME280;40903;51.638;7.528;2023-07-20T00:53:21;100757.78;;;17.21;100.00
55010;BME280;40903;51.638;7.528;2023-07-20T00:55:46;100740.44;;;17.21;100.00
55010;BME280;40903;51.638;7.528;2023-07-20T00:58:12;100747.56;;;17.22;100.00
55010;BME280;40903;51.638;7.528;2023-07-20T01:00:37;100748.38;;;17.22;100.00
55010;BME280;40903;51.638;7.528;2023-07-20T01:03:03;100745.63;;;17.22;100.00
55010;BME280;40903;51.638;7.528;2023-07-20T01:05:38;100745.16;;;17.20;100.00
55010;BME280;40903;51.638;7.528;2023-07-20T01:08:23;100750.66;;;17.20;100.00
55010;BME280;40903;51.638;7.528;2023-07-20T01:11:06;100752.28;;;17.21;100.00
55010;BME280;40903;51.638;7.528;2023-07-20T01:13:36;100750.66;;;17.20;100.00
55010;BME280;40903;51.638;7.528;2023-07-20T01:16:02;100754.53;;;17.19;100.00
55010;BME280;40903;51.638;7.528;2023-07-20T01:18:28;100750.97;;;17.19;100.00
55010;BME280;40903;51.638;7.528;2023-07-20T01:20:59;100752.13;;;17.18;100.00
55010;BME280;40903;51.638;7.528;2023-07-20T01:32:06;100747.91;;;17.20;100.00
55010;BME280;40903;51.638;7.528;2023-07-20T01:34:34;100749.53;;;17.21;100.00
55010;BME280;40903;51.638;7.528;2023-07-20T01:37:01;100741.25;;;17.21;100.00
55010;BME280;40903;51.638;7.528;2023-07-20T01:39:28;100745.94;;;17.21;100.00
55010;BME280;40903;51.638;7.528;2023-07-20T01:41:53;100745.63;;;17.22;100.00
55010;BME280;40903;51.638;7.528;2023-07-20T01:44:23;100747.22;;;17.23;100.00
55010;BME280;40903;51.638;7.528;2023-07-20T01:46:48;100737.81;;;17.24;100.00
55010;BME280;40903;51.638;7.528;2023-07-20T01:49:13;100740.56;;;17.24;100.00
55010;BME280;40903;51.638;7.528;2023-07-20T01:51:39;100741.38;;;17.25;100.00
55010;BME280;40903;51.638;7.528;2023-07-20T01:54:05;100739.44;;;17.25;100.00
55010;BME280;40903;51.638;7.528;2023-07-20T01:56:31;100735.53;;;17.26;100.00
55010;BME280;40903;51.638;7.528;2023-07-20T01:58:56;100733.94;;;17.25;100.00
55010;BME280;40903;51.638;7.528;2023-07-20T02:01:21;100738.13;;;17.23;100.00
55010;BME280;40903;51.638;7.528;2023-07-20T02:03:47;100735.75;;;17.21;100.00
55010;BME280;40903;51.638;7.528;2023-07-20T02:06:12;100732.16;;;17.21;100.00
55010;BME280;40903;51.638;7.528;2023-07-20T02:08:38;100736.06;;;17.20;100.00
55010;BME280;40903;51.638;7.528;2023-07-20T02:11:03;100731.38;;;17.20;100.00
55010;BME280;40903;51.638;7.528;2023-07-20T02:13:30;100734.13;;;17.20;100.00
55010;BME280;40903;51.638;7.528;2023-07-20T02:15:55;100728.94;;;17.19;100.00
55010;BME280;40903;51.638;7.528;2023-07-20T02:18:21;100725.72;;;17.17;100.00
55010;BME280;40903;51.638;7.528;2023-07-20T02:20:49;100728.78;;;17.15;100.00
55010;BME280;40903;51.638;7.528;2023-07-20T02:23:14;100725.56;;;17.13;100.00
55010;BME280;40903;51.638;7.528;2023-07-20T02:25:40;100731.06;;;17.13;100.00
55010;BME280;40903;51.638;7.528;2023-07-20T02:28:07;100733.03;;;17.13;100.00
55010;BME280;40903;51.638;7.528;2023-07-20T02:30:34;100733.81;;;17.13;100.00
55010;BME280;40903;51.638;7.528;2023-07-20T02:32:59;100733.81;;;17.13;100.00
55010;BME280;40903;51.638;7.528;2023-07-20T02:35:25;100728.00;;;17.15;100.00
55010;BME280;40903;51.638;7.528;2023-07-20T02:37:51;100729.94;;;17.14;100.00
55010;BME280;40903;51.638;7.528;2023-07-20T02:40:16;100728.31;;;17.13;100.00
55010;BME280;40903;51.638;7.528;2023-07-20T02:42:42;100735.28;;;17.11;100.00
55010;BME280;40903;51.638;7.528;2023-07-20T02:45:08;100736.78;;;17.08;100.00
55010;BME280;40903;51.638;7.528;2023-07-20T02:47:34;100732.41;;;17.07;100.00
55010;BME280;40903;51.638;7.528;2023-07-20T02:49:59;100728.84;;;17.07;100.00
55010;BME280;40903;51.638;7.528;2023-07-20T02:52:24;100740.22;;;17.05;100.00
55010;BME280;40903;51.638;7.528;2023-07-20T02:54:50;100734.19;;;17.03;100.00
55010;BME280;40903;51.638;7.528;2023-07-20T02:57:16;100739.25;;;17.01;100.00
55010;BME280;40903;51.638;7.528;2023-07-20T02:59:41;100737.63;;;17.00;100.00
55010;BME280;40903;51.638;7.528;2023-07-20T03:02:07;100748.66;;;17.00;100.00
55010;BME280;40903;51.638;7.528;2023-07-20T03:04:35;100750.94;;;16.98;100.00
55010;BME280;40903;51.638;7.528;2023-07-20T03:07:03;100752.91;;;16.98;100.00
55010;BME280;40903;51.638;7.528;2023-07-20T03:09:29;100755.28;;;16.99;100.00
55010;BME280;40903;51.638;7.528;2023-07-20T03:11:55;100757.56;;;16.97;100.00
55010;BME280;40903;51.638;7.528;2023-07-20T03:14:20;100750.78;;;16.95;100.00
55010;BME280;40903;51.638;7.528;2023-07-20T03:16:46;100757.44;;;16.94;100.00
55010;BME280;40903;51.638;7.528;2023-07-20T03:19:11;100762.16;;;16.93;100.00
55010;BME280;40903;51.638;7.528;2023-07-20T03:21:37;100762.94;;;16.94;100.00
55010;BME280;40903;51.638;7.528;2023-07-20T03:24:06;100761.00;;;16.94;100.00
55010;BME280;40903;51.638;7.528;2023-07-20T03:26:32;100758.25;;;16.94;100.00
55010;BME280;40903;51.638;7.528;2023-07-20T03:28:58;100751.59;;;16.95;100.00
55010;BME280;40903;51.638;7.528;2023-07-20T03:31:23;100763.75;;;16.94;100.00
55010;BME280;40903;51.638;7.528;2023-07-20T03:33:49;100761.78;;;16.95;100.00
55010;BME280;40903;51.638;7.528;2023-07-20T03:36:14;100773.16;;;16.93;100.00
55010;BME280;40903;51.638;7.528;2023-07-20T03:38:39;100769.59;;;16.93;100.00
55010;BME280;40903;51.638;7.528;2023-07-20T03:41:05;100762.47;;;16.92;100.00
55010;BME280;40903;51.638;7.528;2023-07-20T03:43:30;100771.56;;;16.92;100.00
55010;BME280;40903;51.638;7.528;2023-07-20T03:45:56;100767.50;;;16.90;100.00
55010;BME280;40903;51.638;7.528;2023-07-20T03:48:24;100766.34;;;16.91;100.00
55010;BME280;40903;51.638;7.528;2023-07-20T03:50:52;100773.84;;;16.90;100.00
55010;BME280;40903;51.638;7.528;2023-07-20T03:53:18;100760.53;;;16.92;100.00
55010;BME280;40903;51.638;7.528;2023-07-20T03:55:50;100760.53;;;16.92;100.00
55010;BME280;40903;51.638;7.528;2023-07-20T03:58:16;100765.22;;;16.92;100.00
55010;BME280;40903;51.638;7.528;2023-07-20T04:00:49;100775.44;;;16.91;100.00
55010;BME280;40903;51.638;7.528;2023-07-20T04:03:19;100767.97;;;16.92;100.00
55010;BME280;40903;51.638;7.528;2023-07-20T04:05:45;100773.94;;;16.94;100.00
55010;BME280;40903;51.638;7.528;2023-07-20T04:08:10;100776.38;;;16.95;100.00
55010;BME280;40903;51.638;7.528;2023-07-20T04:10:36;100781.06;;;16.95;100.00
55010;BME280;40903;51.638;7.528;2023-07-20T04:13:02;100781.75;;;16.92;100.00
55010;BME280;40903;51.638;7.528;2023-07-20T04:15:28;100783.34;;;16.93;100.00
55010;BME280;40903;51.638;7.528;2023-07-20T04:17:54;100794.84;;;16.95;100.00
55010;BME280;40903;51.638;7.528;2023-07-20T04:20:20;100784.31;;;16.97;100.00
55010;BME280;40903;51.638;7.528;2023-07-20T04:22:46;100785.13;;;16.97;100.00
55010;BME280;40903;51.638;7.528;2023-07-20T04:25:11;100784.81;;;16.99;100.00
55010;BME280;40903;51.638;7.528;2023-07-20T04:27:37;100784.00;;;16.98;100.00
55010;BME280;40903;51.638;7.528;2023-07-20T04:30:02;100791.94;;;17.00;100.00
55010;BME280;40903;51.638;7.528;2023-07-20T04:32:28;100788.81;;;17.01;100.00
55010;BME280;40903;51.638;7.528;2023-07-20T04:34:54;100794.34;;;17.01;100.00
55010;BME280;40903;51.638;7.528;2023-07-20T04:37:19;100789.19;;;17.00;100.00
55010;BME280;40903;51.638;7.528;2023-07-20T04:39:45;100791.47;;;16.98;100.00
55010;BME280;40903;51.638;7.528;2023-07-20T04:42:11;100803.78;;;16.92;100.00
55010;BME280;40903;51.638;7.528;2023-07-20T04:44:36;100806.38;;;16.88;100.00
55010;BME280;40903;51.638;7.528;2023-07-20T04:47:02;100810.47;;;16.82;100.00
55010;BME280;40903;51.638;7.528;2023-07-20T04:49:28;100807.03;;;16.85;100.00
55010;BME280;40903;51.638;7.528;2023-07-20T04:51:53;100802.53;;;16.81;100.00
55010;BME280;40903;51.638;7.528;2023-07-20T04:54:19;100815.00;;;16.87;100.00
55010;BME280;40903;51.638;7.528;2023-07-20T04:56:45;100813.50;;;16.89;100.00
55010;BME280;40903;51.638;7.528;2023-07-20T04:59:11;100809.44;;;16.95;100.00
55010;BME280;40903;51.638;7.528;2023-07-20T05:01:36;100820.13;;;17.05;100.00
55010;BME280;40903;51.638;7.528;2023-07-20T05:04:02;100819.28;;;17.05;100.00
55010;BME280;40903;51.638;7.528;2023-07-20T05:06:27;100819.44;;;17.08;100.00
55010;BME280;40903;51.638;7.528;2023-07-20T05:08:53;100820.41;;;17.12;100.00
55010;BME280;40903;51.638;7.528;2023-07-20T05:11:19;100820.41;;;17.12;100.00
55010;BME280;40903;51.638;7.528;2023-07-20T05:13:45;100813.28;;;17.11;100.00
55010;BME280;40903;51.638;7.528;2023-07-20T05:16:10;100818.47;;;17.13;100.00
55010;BME280;40903;51.638;7.528;2023-07-20T05:18:35;100822.34;;;17.12;100.00
55010;BME280;40903;51.638;7.528;2023-07-20T05:21:01;100820.94;;;16.97;100.00
55010;BME280;40903;51.638;7.528;2023-07-20T05:23:26;100826.28;;;16.94;100.00
55010;BME280;40903;51.638;7.528;2023-07-20T05:25:55;100825.03;;;16.91;100.00
55010;BME280;40903;51.638;7.528;2023-07-20T05:28:24;100828.09;;;16.90;100.00
55010;BME280;40903;51.638;7.528;2023-07-20T05:30:51;100828.94;;;16.90;100.00
55010;BME280;40903;51.638;7.528;2023-07-20T05:33:20;100825.03;;;16.91;100.00
55010;BME280;40903;51.638;7.528;2023-07-20T05:35:46;100842.16;;;16.97;100.00
55010;BME280;40903;51.638;7.528;2023-07-20T05:38:11;100841.19;;;17.01;100.00
55010;BME280;40903;51.638;7.528;2023-07-20T05:40:38;100848.16;;;17.07;100.00
55010;BME280;40903;51.638;7.528;2023-07-20T05:43:03;100846.63;;;17.18;100.00
55010;BME280;40903;51.638;7.528;2023-07-20T05:45:29;100849.22;;;17.23;100.00
55010;BME280;40903;51.638;7.528;2023-07-20T05:47:54;100853.06;;;17.31;100.00
55010;BME280;40903;51.638;7.528;2023-07-20T05:50:20;100851.56;;;17.33;100.00
55010;BME280;40903;51.638;7.528;2023-07-20T05:52:45;100858.09;;;17.37;100.00
55010;BME280;40903;51.638;7.528;2023-07-20T05:55:11;100859.19;;;17.45;100.00
55010;BME280;40903;51.638;7.528;2023-07-20T05:57:36;100858.47;;;17.56;100.00
55010;BME280;40903;51.638;7.528;2023-07-20T06:00:07;100856.81;;;17.64;100.00
55010;BME280;40903;51.638;7.528;2023-07-20T06:02:33;100868.72;;;17.76;100.00
55010;BME280;40903;51.638;7.528;2023-07-20T06:04:58;100872.94;;;17.82;100.00
55010;BME280;40903;51.638;7.528;2023-07-20T06:07:24;100872.41;;;17.88;100.00
55010;BME280;40903;51.638;7.528;2023-07-20T06:09:49;100868.91;;;18.00;100.00
55010;BME280;40903;51.638;7.528;2023-07-20T06:12:15;100871.25;;;18.10;100.00
55010;BME280;40903;51.638;7.528;2023-07-20T06:14:40;100875.22;;;18.21;100.00
55010;BME280;40903;51.638;7.528;2023-07-20T06:17:06;100879.75;;;18.25;100.00
55010;BME280;40903;51.638;7.528;2023-07-20T06:19:31;100884.13;;;18.26;100.00
55010;BME280;40903;51.638;7.528;2023-07-20T06:21:57;100884.94;;;18.27;100.00
55010;BME280;40903;51.638;7.528;2023-07-20T06:24:22;100878.78;;;18.30;100.00
55010;BME280;40903;51.638;7.528;2023-07-20T06:26:47;100886.88;;;18.26;100.00
55010;BME280;40903;51.638;7.528;2023-07-20T06:29:13;100888.19;;;18.29;100.00
55010;BME280;40903;51.638;7.528;2023-07-20T06:31:38;100889.97;;;18.33;100.00
55010;BME280;40903;51.638;7.528;2023-07-20T06:34:04;100892.34;;;18.35;99.96
55010;BME280;40903;51.638;7.528;2023-07-20T06:36:29;100885.75;;;18.48;100.00
55010;BME280;40903;51.638;7.528;2023-07-20T06:38:58;100888.03;;;18.66;100.00
55010;BME280;40903;51.638;7.528;2023-07-20T06:41:24;100895.13;;;18.88;100.00
55010;BME280;40903;51.638;7.528;2023-07-20T06:43:49;100885.72;;;19.01;99.60
55010;BME280;40903;51.638;7.528;2023-07-20T06:46:15;100891.63;;;19.11;97.85
55010;BME280;40903;51.638;7.528;2023-07-20T06:48:40;100881.81;;;19.14;93.25
55010;BME280;40903;51.638;7.528;2023-07-20T06:51:05;100884.72;;;19.17;95.60
55010;BME280;40903;51.638;7.528;2023-07-20T06:53:31;100889.47;;;19.29;95.29
55010;BME280;40903;51.638;7.528;2023-07-20T06:55:56;100886.03;;;19.44;89.49
55010;BME280;40903;51.638;7.528;2023-07-20T06:58:23;100889.03;;;19.51;90.17
55010;BME280;40903;51.638;7.528;2023-07-20T07:00:48;100889.38;;;19.49;89.93
55010;BME280;40903;51.638;7.528;2023-07-20T07:03:14;100890.88;;;19.47;89.24
55010;BME280;40903;51.638;7.528;2023-07-20T07:05:39;100897.78;;;19.41;86.40
55010;BME280;40903;51.638;7.528;2023-07-20T07:08:05;100894.88;;;19.37;86.66
55010;BME280;40903;51.638;7.528;2023-07-20T07:10:31;100898.59;;;19.29;84.39
55010;BME280;40903;51.638;7.528;2023-07-20T07:12:56;100902.28;;;19.33;85.01
55010;BME280;40903;51.638;7.528;2023-07-20T07:15:22;100903.44;;;19.44;87.53
55010;BME280;40903;51.638;7.528;2023-07-20T07:17:47;100906.09;;;19.65;85.50
55010;BME280;40903;51.638;7.528;2023-07-20T07:20:13;100913.13;;;19.86;83.83
55010;BME280;40903;51.638;7.528;2023-07-20T07:22:38;100905.41;;;20.03;80.09
55010;BME280;40903;51.638;7.528;2023-07-20T07:25:04;100915.72;;;20.30;81.03
55010;BME280;40903;51.638;7.528;2023-07-20T07:27:29;100910.78;;;20.63;79.69
55010;BME280;40903;51.638;7.528;2023-07-20T07:29:55;100908.72;;;20.88;72.38
55010;BME280;40903;51.638;7.528;2023-07-20T07:32:20;100907.50;;;21.01;71.07
55010;BME280;40903;51.638;7.528;2023-07-20T07:34:46;100913.59;;;21.06;71.90
55010;BME280;40903;51.638;7.528;2023-07-20T07:37:13;100913.81;;;21.29;70.47
55010;BME280;40903;51.638;7.528;2023-07-20T07:39:39;100916.88;;;21.70;71.75
55010;BME280;40903;51.638;7.528;2023-07-20T07:42:05;100923.31;;;21.90;67.95
55010;BME280;40903;51.638;7.528;2023-07-20T07:44:31;100922.88;;;22.03;68.91
55010;BME280;40903;51.638;7.528;2023-07-20T07:46:56;100922.88;;;22.03;68.65
55010;BME280;40903;51.638;7.528;2023-07-20T07:49:22;100933.34;;;21.94;70.35
55010;BME280;40903;51.638;7.528;2023-07-20T07:51:47;100930.84;;;21.89;71.14
55010;BME280;40903;51.638;7.528;2023-07-20T07:54:16;100929.34;;;21.76;70.95
55010;BME280;40903;51.638;7.528;2023-07-20T07:56:41;100927.00;;;21.78;71.81
55010;BME280;40903;51.638;7.528;2023-07-20T07:59:08;100934.63;;;21.81;68.41
55010;BME280;40903;51.638;7.528;2023-07-20T08:01:33;100943.56;;;21.75;67.57
55010;BME280;40903;51.638;7.528;2023-07-20T08:03:58;100945.25;;;21.48;68.50
55010;BME280;40903;51.638;7.528;2023-07-20T08:06:24;100936.09;;;21.48;70.41
55010;BME280;40903;51.638;7.528;2023-07-20T08:08:50;100948.41;;;21.62;66.10
55010;BME280;40903;51.638;7.528;2023-07-20T08:11:16;100946.34;;;21.90;65.72
55010;BME280;40903;51.638;7.528;2023-07-20T08:13:43;100944.69;;;22.20;65.39
55010;BME280;40903;51.638;7.528;2023-07-20T08:16:08;100942.66;;;22.36;60.88
55010;BME280;40903;51.638;7.528;2023-07-20T08:18:36;100934.88;;;22.79;64.83
55010;BME280;40903;51.638;7.528;2023-07-20T08:21:02;100938.66;;;23.09;63.40
55010;BME280;40903;51.638;7.528;2023-07-20T08:23:28;100931.44;;;23.46;62.27
55010;BME280;40903;51.638;7.528;2023-07-20T08:25:54;100947.25;;;23.84;62.35
55010;BME280;40903;51.638;7.528;2023-07-20T08:28:20;100946.66;;;24.23;61.93
55010;BME280;40903;51.638;7.528;2023-07-20T08:30:49;100954.97;;;24.45;56.84
55010;BME280;40903;51.638;7.528;2023-07-20T08:33:17;100955.00;;;24.49;52.64
55010;BME280;40903;51.638;7.528;2023-07-20T08:35:45;100950.91;;;24.69;53.27
55010;BME280;40903;51.638;7.528;2023-07-20T08:38:11;100952.69;;;24.84;50.22
55010;BME280;40903;51.638;7.528;2023-07-20T08:40:42;100961.53;;;24.89;49.73
55010;BME280;40903;51.638;7.528;2023-07-20T08:43:11;100960.00;;;24.95;47.49
55010;BME280;40903;51.638;7.528;2023-07-20T08:45:39;100959.81;;;25.14;49.43
55010;BME280;40903;51.638;7.528;2023-07-20T08:48:08;100956.03;;;25.29;49.44
55010;BME280;40903;51.638;7.528;2023-07-20T08:50:34;100959.56;;;25.63;50.77
55010;BME280;40903;51.638;7.528;2023-07-20T08:53:00;100967.06;;;25.99;51.29
55010;BME280;40903;51.638;7.528;2023-07-20T08:55:27;100972.00;;;26.12;48.29
55010;BME280;40903;51.638;7.528;2023-07-20T08:57:54;100966.09;;;26.24;44.73
55010;BME280;40903;51.638;7.528;2023-07-20T09:00:21;100973.78;;;25.87;43.54
55010;BME280;40903;51.638;7.528;2023-07-20T09:02:50;100983.72;;;25.45;43.68
55010;BME280;40903;51.638;7.528;2023-07-20T09:05:17;100968.25;;;25.18;46.86
55010;BME280;40903;51.638;7.528;2023-07-20T09:07:42;100970.31;;;25.21;48.72
55010;BME280;40903;51.638;7.528;2023-07-20T09:10:08;100971.75;;;25.44;46.59
55010;BME280;40903;51.638;7.528;2023-07-20T09:12:35;100957.31;;;25.79;48.05
55010;BME280;40903;51.638;7.528;2023-07-20T09:15:01;100964.13;;;25.81;46.03
55010;BME280;40903;51.638;7.528;2023-07-20T09:17:26;100965.22;;;26.13;46.61
55010;BME280;40903;51.638;7.528;2023-07-20T09:19:55;100963.59;;;26.12;46.30
55010;BME280;40903;51.638;7.528;2023-07-20T09:22:21;100968.91;;;25.77;45.76
55010;BME280;40903;51.638;7.528;2023-07-20T09:24:46;100980.47;;;25.39;43.36
55010;BME280;40903;51.638;7.528;2023-07-20T09:27:12;100971.56;;;24.94;44.19
55010;BME280;40903;51.638;7.528;2023-07-20T09:29:53;100972.53;;;24.75;45.66
55010;BME280;40903;51.638;7.528;2023-07-20T09:32:19;100960.69;;;24.85;47.21
55010;BME280;40903;51.638;7.528;2023-07-20T09:34:46;100973.66;;;25.04;45.45
55010;BME280;40903;51.638;7.528;2023-07-20T09:37:11;100958.16;;;25.39;45.04
55010;BME280;40903;51.638;7.528;2023-07-20T09:39:44;100954.47;;;25.75;46.48
55010;BME280;40903;51.638;7.528;2023-07-20T09:42:11;100965.41;;;25.47;44.42
55010;BME280;40903;51.638;7.528;2023-07-20T09:44:39;100966.06;;;25.34;45.95
55010;BME280;40903;51.638;7.528;2023-07-20T09:47:05;100958.28;;;25.53;44.81
55010;BME280;40903;51.638;7.528;2023-07-20T09:49:31;100958.78;;;25.66;44.54
55010;BME280;40903;51.638;7.528;2023-07-20T09:51:57;100962.50;;;25.77;42.01
55010;BME280;40903;51.638;7.528;2023-07-20T09:54:24;100963.56;;;26.09;43.74
55010;BME280;40903;51.638;7.528;2023-07-20T09:56:52;100970.44;;;26.15;42.45
55010;BME280;40903;51.638;7.528;2023-07-20T09:59:18;100957.59;;;26.14;43.69
55010;BME280;40903;51.638;7.528;2023-07-20T10:01:44;100960.69;;;26.48;42.08
55010;BME280;40903;51.638;7.528;2023-07-20T10:04:11;100957.63;;;26.81;42.27
55010;BME280;40903;51.638;7.528;2023-07-20T10:06:39;100964.09;;;26.96;40.87
55010;BME280;40903;51.638;7.528;2023-07-20T10:09:07;100971.31;;;27.00;38.33
55010;BME280;40903;51.638;7.528;2023-07-20T10:11:35;100964.97;;;27.10;40.13
55010;BME280;40903;51.638;7.528;2023-07-20T10:14:04;100971.41;;;27.25;36.39
55010;BME280;40903;51.638;7.528;2023-07-20T10:16:37;100968.56;;;27.11;37.21
55010;BME280;40903;51.638;7.528;2023-07-20T10:19:11;100974.59;;;27.13;37.05
55010;BME280;40903;51.638;7.528;2023-07-20T10:21:42;100968.63;;;27.28;36.27
55010;BME280;40903;51.638;7.528;2023-07-20T10:24:13;100963.06;;;27.53;39.26
55010;BME280;40903;51.638;7.528;2023-07-20T10:26:39;100961.13;;;27.81;40.66
55010;BME280;40903;51.638;7.528;2023-07-20T10:29:05;100957.94;;;28.04;40.59
55010;BME280;40903;51.638;7.528;2023-07-20T10:31:32;100958.69;;;28.29;40.92
55010;BME280;40903;51.638;7.528;2023-07-20T10:33:58;100961.09;;;28.27;38.28
55010;BME280;40903;51.638;7.528;2023-07-20T10:36:26;100961.13;;;28.20;39.83
55010;BME280;40903;51.638;7.528;2023-07-20T10:38:55;100963.91;;;28.20;35.78
55010;BME280;40903;51.638;7.528;2023-07-20T10:41:28;100968.75;;;27.98;33.63
55010;BME280;40903;51.638;7.528;2023-07-20T10:44:25;100965.94;;;27.91;35.50
55010;BME280;40903;51.638;7.528;2023-07-20T10:46:59;100963.94;;;27.78;33.68
55010;BME280;40903;51.638;7.528;2023-07-20T10:49:26;100963.53;;;27.79;34.19
55010;BME280;40903;51.638;7.528;2023-07-20T10:51:59;100943.53;;;27.88;35.63
55010;BME280;40903;51.638;7.528;2023-07-20T10:56:55;100956.31;;;27.99;36.39
55010;BME280;40903;51.638;7.528;2023-07-20T11:01:54;100949.47;;;28.35;37.40
55010;BME280;40903;51.638;7.528;2023-07-20T11:07:02;100943.78;;;28.59;37.16
55010;BME280;40903;51.638;7.528;2023-07-20T11:09:33;100952.16;;;28.80;36.23
55010;BME280;40903;51.638;7.528;2023-07-20T11:12:12;100948.97;;;28.75;35.48
55010;BME280;40903;51.638;7.528;2023-07-20T11:14:42;100948.97;;;28.71;34.59
55010;BME280;40903;51.638;7.528;2023-07-20T11:17:15;100942.50;;;28.85;36.29
55010;BME280;40903;51.638;7.528;2023-07-20T11:19:48;100951.78;;;28.71;34.00
55010;BME280;40903;51.638;7.528;2023-07-20T11:22:16;100947.72;;;28.83;34.45
55010;BME280;40903;51.638;7.528;2023-07-20T11:24:42;100950.53;;;28.93;33.79
55010;BME280;40903;51.638;7.528;2023-07-20T11:27:08;100940.88;;;28.87;33.42
55010;BME280;40903;51.638;7.528;2023-07-20T11:29:35;100949.75;;;28.75;31.63
55010;BME280;40903;51.638;7.528;2023-07-20T11:32:04;100940.69;;;28.09;33.51
55010;BME280;40903;51.638;7.528;2023-07-20T11:34:31;100940.28;;;27.86;34.33
55010;BME280;40903;51.638;7.528;2023-07-20T11:36:57;100937.84;;;27.35;33.42
55010;BME280;40903;51.638;7.528;2023-07-20T11:39:23;100933.44;;;27.38;34.57
55010;BME280;40903;51.638;7.528;2023-07-20T11:41:52;100929.06;;;27.65;35.29
55010;BME280;40903;51.638;7.528;2023-07-20T11:44:19;100929.88;;;27.86;35.25
55010;BME280;40903;51.638;7.528;2023-07-20T11:46:48;100928.25;;;28.06;33.85
55010;BME280;40903;51.638;7.528;2023-07-20T11:49:14;100932.66;;;27.69;31.61
55010;BME280;40903;51.638;7.528;2023-07-20T11:51:40;100925.47;;;27.92;35.95
55010;BME280;40903;51.638;7.528;2023-07-20T11:54:08;100922.25;;;28.01;35.91
55010;BME280;40903;51.638;7.528;2023-07-20T11:56:34;100921.03;;;28.19;34.84
55010;BME280;40903;51.638;7.528;2023-07-20T11:59:00;100925.81;;;28.36;35.70
55010;BME280;40903;51.638;7.528;2023-07-20T12:01:27;100906.59;;;28.31;36.16
55010;BME280;40903;51.638;7.528;2023-07-20T12:03:59;100918.63;;;28.28;34.48
55010;BME280;40903;51.638;7.528;2023-07-20T12:06:25;100910.16;;;28.52;35.20
55010;BME280;40903;51.638;7.528;2023-07-20T12:08:55;100916.03;;;28.79;33.90
55010;BME280;40903;51.638;7.528;2023-07-20T12:11:37;100909.66;;;28.75;34.78
55010;BME280;40903;51.638;7.528;2023-07-20T12:14:07;100910.44;;;28.79;32.52
55010;BME280;40903;51.638;7.528;2023-07-20T12:16:34;100920.44;;;28.90;32.36
55010;BME280;40903;51.638;7.528;2023-07-20T12:19:01;100926.47;;;28.92;30.92
55010;BME280;40903;51.638;7.528;2023-07-20T12:21:27;100926.50;;;28.78;30.29
55010;BME280;40903;51.638;7.528;2023-07-20T12:23:53;100921.63;;;28.93;30.72
55010;BME280;40903;51.638;7.528;2023-07-20T12:26:22;100921.16;;;29.08;29.93
55010;BME280;40903;51.638;7.528;2023-07-20T12:28:49;100928.38;;;29.06;29.11
55010;BME280;40903;51.638;7.528;2023-07-20T12:31:15;100919.59;;;29.00;29.92
55010;BME280;40903;51.638;7.528;2023-07-20T12:33:40;100916.34;;;29.05;28.99
55010;BME280;40903;51.638;7.528;2023-07-20T12:36:06;100912.78;;;28.87;28.92
55010;BME280;40903;51.638;7.528;2023-07-20T12:38:32;100915.22;;;28.85;29.61
55010;BME280;40903;51.638;7.528;2023-07-20T12:40:57;100928.44;;;28.88;29.46
55010;BME280;40903;51.638;7.528;2023-07-20T12:43:24;100909.50;;;29.10;31.30
55010;BME280;40903;51.638;7.528;2023-07-20T12:45:49;100910.16;;;29.31;29.03
55010;BME280;40903;51.638;7.528;2023-07-20T12:48:15;100912.81;;;28.94;26.98
55010;BME280;40903;51.638;7.528;2023-07-20T12:50:41;100909.72;;;28.57;28.31
55010;BME280;40903;51.638;7.528;2023-07-20T12:53:06;100887.97;;;28.79;31.06
55010;BME280;40903;51.638;7.528;2023-07-20T12:55:32;100894.03;;;28.67;29.77
55010;BME280;40903;51.638;7.528;2023-07-20T12:57:57;100904.88;;;28.68;26.47
55010;BME280;40903;51.638;7.528;2023-07-20T13:00:23;100889.97;;;28.82;28.83